Time;durP1;ratioP1;P1;durP2;ratioP2;P2;SDS_P1;SDS_P2;PMS_P1;PMS_P2;Temp;Humidity;BMP_temperature;BMP_pressure;BME280_temperature;BME280_humidity;BME280_pressure;Samples;Min_cycle;Max_cycle;Signal;HPM_P1;HPM_P2
2022/12/18 00:00:47;;;;;;;42.03;17.33;;;-2.30;99.90;;;;;;5068145;28;21497;-55
2022/12/18 00:03:15;;;;;;;40.73;16.97;;;-2.30;99.90;;;;;;5054116;28;20278;-54
2022/12/18 00:05:49;;;;;;;32.60;17.53;;;-2.30;99.90;;;;;;5062771;28;21910;-55
2022/12/18 00:08:17;;;;;;;46.93;20.57;;;-2.30;99.90;;;;;;5067951;28;20202;-54
2022/12/18 00:10:45;;;;;;;41.10;18.87;;;-2.40;99.90;;;;;;5058287;28;20255;-55
2022/12/18 00:13:12;;;;;;;42.47;18.77;;;-2.50;99.90;;;;;;5075659;28;20203;-54
2022/12/18 00:15:40;;;;;;;47.53;20.17;;;-2.50;99.90;;;;;;5069216;28;20195;-54
2022/12/18 00:18:06;;;;;;;42.10;18.13;;;-2.60;99.90;;;;;;5064762;28;20535;-54
2022/12/18 00:20:38;;;;;;;44.90;19.13;;;-2.50;99.90;;;;;;5076594;28;20195;-56
2022/12/18 00:23:06;;;;;;;39.43;17.70;;;-2.60;99.90;;;;;;5079166;28;20295;-54
2022/12/18 00:25:35;;;;;;;39.10;17.67;;;-2.70;99.90;;;;;;5077448;28;20963;-54
2022/12/18 00:28:03;;;;;;;36.07;16.87;;;-2.80;99.90;;;;;;5073229;28;20218;-54
2022/12/18 00:30:30;;;;;;;37.03;17.13;;;-2.70;99.90;;;;;;5076069;28;20207;-54
2022/12/18 00:32:57;;;;;;;39.77;17.53;;;-2.60;99.90;;;;;;5071580;28;21909;-55
2022/12/18 00:35:24;;;;;;;38.47;18.37;;;-2.60;99.90;;;;;;5070899;28;20199;-55
2022/12/18 00:37:51;;;;;;;41.13;18.63;;;-2.60;99.90;;;;;;5075542;28;20200;-55
2022/12/18 00:40:18;;;;;;;42.87;18.43;;;-2.60;99.90;;;;;;5074978;28;21139;-57
2022/12/18 00:42:57;;;;;;;40.33;17.70;;;-2.60;99.90;;;;;;5073790;28;20242;-55
2022/12/18 00:45:33;;;;;;;39.30;17.57;;;-2.50;99.90;;;;;;5076259;28;21189;-55
2022/12/18 00:48:00;;;;;;;44.17;18.87;;;-2.60;99.90;;;;;;5074519;28;20365;-55
2022/12/18 00:50:26;;;;;;;35.87;17.43;;;-2.60;99.90;;;;;;5035768;28;20225;-54
2022/12/18 00:52:53;;;;;;;37.60;17.73;;;-2.60;99.90;;;;;;5077601;28;20200;-54
2022/12/18 00:55:20;;;;;;;35.67;15.90;;;-2.60;99.90;;;;;;5070247;28;20199;-55
2022/12/18 00:57:46;;;;;;;45.30;18.30;;;-2.60;93.80;;;;;;5070598;28;20537;-56
2022/12/18 01:00:15;;;;;;;39.00;17.13;;;-2.60;75.10;;;;;;5061467;28;20207;-56
2022/12/18 01:02:41;;;;;;;40.20;18.10;;;-2.70;80.30;;;;;;5077180;28;20198;-55
2022/12/18 01:05:10;;;;;;;41.10;18.07;;;-2.70;56.20;;;;;;5076710;28;20227;-56
2022/12/18 01:07:38;;;;;;;35.73;18.33;;;-2.80;56.50;;;;;;5079596;28;20236;-56
2022/12/18 01:10:06;;;;;;;44.67;16.33;;;-2.80;99.90;;;;;;5079930;28;20221;-56
2022/12/18 01:12:33;;;;;;;37.47;17.43;;;-2.80;72.40;;;;;;5066963;28;20199;-55
2022/12/18 01:15:00;;;;;;;38.30;17.43;;;-2.70;72.20;;;;;;5077071;28;20307;-58
2022/12/18 01:17:27;;;;;;;34.40;17.40;;;-2.70;11.60;;;;;;5078379;28;20195;-56
2022/12/18 01:19:54;;;;;;;32.60;16.67;;;-2.80;1.00;;;;;;5062815;28;20192;-56
2022/12/18 01:22:21;;;;;;;38.50;18.17;;;-2.90;1.00;;;;;;5078653;28;20204;-56
2022/12/18 01:24:47;;;;;;;34.13;16.10;;;-2.90;1.00;;;;;;5079411;28;20187;-56
2022/12/18 01:27:15;;;;;;;32.33;15.47;;;-2.90;1.00;;;;;;5059214;28;20519;-57
2022/12/18 01:29:42;;;;;;;36.90;18.03;;;-2.90;1.00;;;;;;5057870;28;20420;-54
2022/12/18 01:32:09;;;;;;;31.40;15.70;;;-2.90;1.00;;;;;;5068318;28;20225;-54
2022/12/18 01:34:37;;;;;;;28.27;13.67;;;-2.90;1.00;;;;;;5074248;28;20206;-56
2022/12/18 01:37:04;;;;;;;35.77;17.03;;;-2.90;1.00;;;;;;5074399;28;20199;-56
2022/12/18 01:39:32;;;;;;;33.67;15.90;;;-2.90;1.00;;;;;;5078692;28;20261;-56
2022/12/18 01:42:03;;;;;;;33.07;15.67;;;-2.90;1.00;;;;;;5062414;28;20234;-55
2022/12/18 01:45:01;;;;;;;34.87;15.23;;;-3.00;1.00;;;;;;5065970;28;20605;-54
2022/12/18 01:47:46;;;;;;;30.30;14.60;;;-3.00;1.00;;;;;;5069567;28;20295;-55
2022/12/18 01:50:14;;;;;;;28.73;14.90;;;-3.00;1.00;;;;;;5080199;28;20200;-57
2022/12/18 01:52:46;;;;;;;26.87;14.23;;;-3.00;1.00;;;;;;5078468;28;20209;-55
2022/12/18 01:55:18;;;;;;;31.23;14.73;;;-2.90;1.00;;;;;;5076581;28;20208;-56
2022/12/18 01:57:46;;;;;;;28.03;13.77;;;-2.90;1.00;;;;;;5080129;28;20231;-55
2022/12/18 02:00:19;;;;;;;30.37;14.57;;;-2.90;1.00;;;;;;5079786;28;20508;-55
2022/12/18 02:02:46;;;;;;;32.93;15.30;;;-3.00;1.00;;;;;;5082051;28;20209;-55
2022/12/18 02:05:38;;;;;;;32.73;13.53;;;-3.00;1.00;;;;;;5080505;28;20199;-59
2022/12/18 02:08:10;;;;;;;30.23;13.50;;;-3.00;1.00;;;;;;5072925;28;20239;-56
2022/12/18 02:11:07;;;;;;;26.30;13.13;;;-3.00;1.00;;;;;;5076414;28;20723;-55
2022/12/18 02:13:50;;;;;;;33.17;14.20;;;-3.00;1.00;;;;;;5056988;28;20203;-55
2022/12/18 02:16:45;;;;;;;30.53;13.97;;;-3.00;1.00;;;;;;5079024;28;20204;-55
2022/12/18 02:19:58;;;;;;;30.20;13.97;;;-2.90;1.00;;;;;;5077390;28;20201;-55
2022/12/18 02:22:39;;;;;;;30.70;13.53;;;-2.90;99.90;;;;;;5076105;28;20256;-57
2022/12/18 02:25:40;;;;;;;24.43;12.93;;;-3.10;1.00;;;;;;5077580;28;20694;-55
2022/12/18 02:28:12;;;;;;;30.53;13.43;;;-3.20;1.00;;;;;;5075358;28;20211;-60
2022/12/18 02:30:43;;;;;;;27.57;12.90;;;-3.20;1.00;;;;;;5079037;28;20203;-56
2022/12/18 02:33:12;;;;;;;26.13;14.40;;;-3.20;1.00;;;;;;5076786;28;20200;-55
2022/12/18 02:35:42;;;;;;;25.93;13.40;;;-3.20;99.90;;;;;;5078562;28;20192;-55
2022/12/18 02:38:10;;;;;;;24.20;12.30;;;-3.30;99.90;;;;;;5076796;28;20217;-55
2022/12/18 02:40:38;;;;;;;23.00;12.00;;;-3.10;1.00;;;;;;5077340;28;20202;-55
2022/12/18 02:43:12;;;;;;;28.30;13.77;;;-3.10;1.00;;;;;;5072097;28;20283;-57
2022/12/18 02:45:56;;;;;;;30.53;13.57;;;-3.10;1.00;;;;;;5066625;28;20540;-56
2022/12/18 02:48:32;;;;;;;26.20;13.77;;;-3.10;1.00;;;;;;5075062;28;20250;-55
2022/12/18 02:51:21;;;;;;;26.40;13.70;;;-3.10;1.00;;;;;;5078040;28;20655;-58
2022/12/18 02:53:58;;;;;;;23.10;12.60;;;-3.20;1.00;;;;;;5078022;28;20326;-55
2022/12/18 02:56:34;;;;;;;28.60;13.23;;;-3.20;1.00;;;;;;5077388;28;20412;-56
2022/12/18 02:59:08;;;;;;;28.50;12.80;;;-3.30;99.90;;;;;;5075108;28;20198;-57
2022/12/18 03:01:46;;;;;;;29.77;13.93;;;-3.20;1.00;;;;;;5076449;28;20651;-55
2022/12/18 03:04:41;;;;;;;26.10;13.87;;;-3.30;1.00;;;;;;5075437;28;20517;-55
2022/12/18 03:07:15;;;;;;;29.13;13.13;;;-3.40;1.00;;;;;;5074153;28;20241;-54
2022/12/18 03:09:47;;;;;;;22.40;12.83;;;-3.40;1.00;;;;;;5074056;28;22166;-57
2022/12/18 03:12:28;;;;;;;28.07;13.73;;;-3.50;1.00;;;;;;5075338;28;20218;-55
2022/12/18 03:14:59;;;;;;;26.43;13.23;;;-3.50;1.00;;;;;;5076750;28;20242;-55
2022/12/18 03:17:29;;;;;;;28.03;13.13;;;-3.60;1.00;;;;;;5074884;28;20202;-54
2022/12/18 03:20:02;;;;;;;23.73;12.80;;;-3.70;1.00;;;;;;5076469;28;20883;-55
2022/12/18 03:22:33;;;;;;;26.80;11.53;;;-3.80;1.00;;;;;;5076059;28;20552;-55
2022/12/18 03:25:04;;;;;;;25.77;13.20;;;-3.70;1.00;;;;;;5076736;28;20207;-55
2022/12/18 03:27:33;;;;;;;21.40;12.57;;;-3.80;1.00;;;;;;5074803;28;20195;-55
2022/12/18 03:30:11;;;;;;;25.70;13.30;;;-3.80;1.00;;;;;;5078010;28;20223;-65
2022/12/18 03:33:20;;;;;;;24.07;11.27;;;-3.80;1.00;;;;;;5074347;28;20200;-58
2022/12/18 03:35:47;;;;;;;24.97;11.63;;;-3.70;1.00;;;;;;4976584;28;20212;-55
2022/12/18 03:38:14;;;;;;;21.77;11.67;;;-3.60;1.00;;;;;;4973736;28;20221;-54
2022/12/18 03:41:02;;;;;;;26.07;12.83;;;-3.90;1.00;;;;;;4975426;28;20202;-56
2022/12/18 03:43:41;;;;;;;23.40;10.97;;;-3.80;1.00;;;;;;4976894;28;20247;-55
2022/12/18 03:46:33;;;;;;;21.17;10.97;;;-3.70;1.00;;;;;;4973574;28;20241;-55
2022/12/18 03:49:31;;;;;;;23.40;10.47;;;-3.70;1.00;;;;;;4974950;28;20216;-54
2022/12/18 03:52:17;;;;;;;23.00;11.80;;;-3.70;1.00;;;;;;4971969;28;20290;-56
2022/12/18 03:54:46;;;;;;;25.17;12.97;;;-3.80;1.00;;;;;;4977390;28;20297;-56
2022/12/18 03:57:20;;;;;;;22.00;10.33;;;-3.70;1.00;;;;;;4986828;28;20220;-55
2022/12/18 03:59:50;;;;;;;22.30;10.97;;;-3.70;1.00;;;;;;4994383;28;20292;-55
2022/12/18 04:02:18;;;;;;;23.87;11.03;;;-3.70;99.90;;;;;;4995806;28;20201;-54
2022/12/18 04:04:47;;;;;;;24.37;12.03;;;-3.70;99.90;;;;;;4996183;28;21645;-55
2022/12/18 04:07:15;;;;;;;23.33;11.33;;;-3.60;1.00;;;;;;4992930;28;20336;-56
2022/12/18 04:09:45;;;;;;;20.93;11.00;;;-3.70;99.90;;;;;;5030936;28;20227;-55
2022/12/18 04:12:12;;;;;;;27.30;12.43;;;-3.80;99.90;;;;;;5073673;28;20218;-55
2022/12/18 04:14:39;;;;;;;23.97;11.57;;;-3.70;99.90;;;;;;5073580;28;20194;-54
2022/12/18 04:17:06;;;;;;;24.93;11.73;;;-3.70;99.90;;;;;;5074410;28;20222;-54
2022/12/18 04:19:33;;;;;;;22.80;9.93;;;-3.80;99.90;;;;;;5071899;28;20829;-54
2022/12/18 04:21:59;;;;;;;26.10;11.50;;;-3.90;99.90;;;;;;5073175;28;20195;-54
2022/12/18 04:24:26;;;;;;;18.33;10.57;;;-3.90;99.90;;;;;;5076317;28;20202;-62
2022/12/18 04:26:54;;;;;;;22.83;10.87;;;-4.00;99.90;;;;;;5075135;28;20285;-54
2022/12/18 04:29:21;;;;;;;22.00;11.10;;;-3.90;99.90;;;;;;5055389;28;20210;-56
2022/12/18 04:31:47;;;;;;;28.63;12.13;;;-3.90;99.90;;;;;;5076198;28;20274;-54
2022/12/18 04:34:14;;;;;;;22.57;11.50;;;-3.90;99.90;;;;;;5075866;28;20289;-55
2022/12/18 04:36:41;;;;;;;20.37;11.17;;;-3.90;99.90;;;;;;5058042;28;20280;-58
2022/12/18 04:39:08;;;;;;;21.87;11.00;;;-3.80;99.90;;;;;;5077026;28;20204;-55
2022/12/18 04:41:35;;;;;;;18.47;10.83;;;-3.80;99.90;;;;;;5074983;28;20682;-54
2022/12/18 04:44:01;;;;;;;23.20;10.97;;;-3.80;1.00;;;;;;5074249;28;20203;-58
2022/12/18 04:46:28;;;;;;;20.80;11.83;;;-3.80;1.00;;;;;;5075858;28;20282;-54
2022/12/18 04:48:55;;;;;;;22.23;11.87;;;-3.70;1.00;;;;;;5076792;28;20242;-54
2022/12/18 04:51:22;;;;;;;24.67;11.07;;;-3.70;1.00;;;;;;5079081;28;20218;-54
2022/12/18 04:53:52;;;;;;;24.30;10.43;;;-3.60;1.00;;;;;;5057847;28;20240;-56
2022/12/18 04:56:19;;;;;;;19.77;9.93;;;-3.70;1.00;;;;;;5078809;28;20199;-54
2022/12/18 04:58:46;;;;;;;20.53;10.57;;;-3.60;1.00;;;;;;5079848;28;20285;-57
2022/12/18 05:01:14;;;;;;;17.70;9.73;;;-3.60;1.00;;;;;;5080525;28;20209;-56
2022/12/18 05:03:42;;;;;;;21.87;10.07;;;-3.80;1.00;;;;;;5078540;28;20261;-53
2022/12/18 05:06:10;;;;;;;20.33;9.90;;;-3.60;1.00;;;;;;5080625;28;20231;-56
2022/12/18 05:08:37;;;;;;;17.10;9.17;;;-3.60;1.00;;;;;;5077684;28;20333;-54
2022/12/18 05:11:10;;;;;;;18.30;9.67;;;-3.60;1.00;;;;;;5080402;28;20223;-54
2022/12/18 05:13:37;;;;;;;18.00;10.33;;;-3.70;1.00;;;;;;5077358;28;20199;-60
2022/12/18 05:16:05;;;;;;;16.63;8.93;;;-3.70;1.00;;;;;;5080569;28;20252;-56
2022/12/18 05:18:32;;;;;;;19.20;9.93;;;-3.70;1.00;;;;;;5078505;28;20289;-54
2022/12/18 05:20:59;;;;;;;19.43;10.13;;;-3.80;1.00;;;;;;5079614;28;20199;-54
2022/12/18 05:23:26;;;;;;;20.07;9.67;;;-3.80;1.00;;;;;;5078137;28;20232;-54
2022/12/18 05:25:59;;;;;;;17.97;9.57;;;-3.90;1.00;;;;;;5081233;28;20211;-54
2022/12/18 05:28:28;;;;;;;18.33;10.23;;;-4.00;1.00;;;;;;5076307;28;20225;-57
2022/12/18 05:30:57;;;;;;;16.03;9.37;;;-4.00;1.00;;;;;;5075231;28;20557;-54
2022/12/18 05:33:26;;;;;;;22.07;9.60;;;-4.00;1.00;;;;;;5080665;28;20240;-55
2022/12/18 05:35:58;;;;;;;19.07;9.37;;;-4.10;1.00;;;;;;5080911;28;20346;-55
2022/12/18 05:38:26;;;;;;;17.63;10.43;;;-4.00;1.00;;;;;;5079234;28;20199;-55
2022/12/18 05:40:53;;;;;;;20.77;9.47;;;-4.00;1.00;;;;;;5081094;28;20675;-55
2022/12/18 05:43:24;;;;;;;16.30;9.57;;;-4.10;1.00;;;;;;5080051;28;20659;-55
2022/12/18 05:45:52;;;;;;;20.20;9.83;;;-4.10;1.00;;;;;;5061836;28;20192;-55
2022/12/18 05:48:20;;;;;;;12.77;8.20;;;-4.20;1.00;;;;;;5079370;28;20678;-58
2022/12/18 05:50:49;;;;;;;20.03;9.13;;;-4.30;1.00;;;;;;5079528;28;20202;-56
2022/12/18 05:53:19;;;;;;;17.40;10.07;;;-4.30;1.00;;;;;;5080381;28;20200;-54
2022/12/18 05:55:46;;;;;;;21.17;9.40;;;-4.30;99.90;;;;;;5081019;28;20672;-54
2022/12/18 05:58:14;;;;;;;16.10;9.17;;;-4.40;78.20;;;;;;5076465;28;20203;-54
2022/12/18 06:00:44;;;;;;;18.30;9.97;;;-4.30;99.90;;;;;;5064456;28;20199;-55
2022/12/18 06:03:12;;;;;;;18.93;10.23;;;-4.40;99.90;;;;;;5078144;28;20209;-56
2022/12/18 06:05:44;;;;;;;17.53;8.30;;;-4.30;99.90;;;;;;5072329;28;20208;-58
2022/12/18 06:08:12;;;;;;;16.40;8.57;;;-4.10;99.90;;;;;;5077217;28;20200;-54
2022/12/18 06:10:40;;;;;;;17.07;9.30;;;-4.00;93.30;;;;;;5079325;28;20683;-55
2022/12/18 06:13:07;;;;;;;16.43;9.33;;;-3.90;1.00;;;;;;5078024;28;20281;-56
2022/12/18 06:15:37;;;;;;;17.33;9.07;;;-4.10;1.00;;;;;;5079441;28;20200;-56
2022/12/18 06:18:04;;;;;;;16.83;8.80;;;-4.20;1.00;;;;;;5076113;28;20207;-55
2022/12/18 06:20:31;;;;;;;17.93;9.97;;;-4.20;1.00;;;;;;5078700;28;20302;-55
2022/12/18 06:22:59;;;;;;;18.13;8.67;;;-4.30;98.00;;;;;;5078366;28;20708;-56
2022/12/18 06:25:26;;;;;;;17.17;8.50;;;-4.20;99.90;;;;;;5060922;28;20656;-54
2022/12/18 06:27:53;;;;;;;14.73;8.43;;;-4.10;91.50;;;;;;5077196;28;20566;-55
2022/12/18 06:30:20;;;;;;;15.90;8.20;;;-4.10;1.00;;;;;;5061639;28;20215;-55
2022/12/18 06:32:48;;;;;;;14.60;8.30;;;-4.00;10.50;;;;;;5079266;28;20571;-55
2022/12/18 06:35:22;;;;;;;13.60;8.40;;;-4.10;1.00;;;;;;5078520;28;20830;-55
2022/12/18 06:37:49;;;;;;;14.97;7.70;;;-4.10;1.00;;;;;;5077651;28;20217;-58
2022/12/18 06:40:16;;;;;;;15.40;8.20;;;-4.10;1.00;;;;;;5078572;28;20207;-54
2022/12/18 06:42:43;;;;;;;13.97;8.20;;;-4.20;1.00;;;;;;5074987;28;20255;-56
2022/12/18 06:45:11;;;;;;;15.00;8.23;;;-4.20;1.00;;;;;;5072029;28;20220;-54
2022/12/18 06:47:37;;;;;;;15.27;9.37;;;-4.20;1.00;;;;;;5075694;28;20203;-54
2022/12/18 06:50:05;;;;;;;12.97;8.13;;;-4.20;1.00;;;;;;5077298;28;20659;-59
2022/12/18 06:52:32;;;;;;;15.30;8.43;;;-4.30;1.00;;;;;;5078811;28;20205;-57
2022/12/18 06:54:59;;;;;;;19.47;8.40;;;-4.30;1.00;;;;;;5076735;28;20206;-55
2022/12/18 06:57:26;;;;;;;18.47;9.17;;;-4.30;1.00;;;;;;5074049;28;20198;-55
2022/12/18 06:59:53;;;;;;;22.13;9.63;;;-4.20;12.10;;;;;;5078099;28;20203;-59
2022/12/18 07:02:21;;;;;;;14.63;8.37;;;-4.30;1.00;;;;;;5069635;28;20207;-55
2022/12/18 07:04:49;;;;;;;14.70;8.83;;;-4.30;1.00;;;;;;5078771;28;20649;-55
2022/12/18 07:07:16;;;;;;;18.23;9.33;;;-4.30;1.00;;;;;;5061550;28;20361;-53
2022/12/18 07:09:42;;;;;;;15.60;9.27;;;-4.40;1.00;;;;;;5054853;28;20212;-55
2022/12/18 07:12:09;;;;;;;15.80;9.33;;;-4.40;1.00;;;;;;5058657;28;20296;-54
2022/12/18 07:14:36;;;;;;;14.80;8.80;;;-4.40;1.00;;;;;;5056455;28;20199;-54
2022/12/18 07:17:03;;;;;;;19.00;9.47;;;-4.30;99.90;;;;;;5039618;28;20643;-55
2022/12/18 07:19:31;;;;;;;14.90;8.37;;;-4.20;90.40;;;;;;5058534;28;20199;-54
2022/12/18 07:21:58;;;;;;;14.33;8.90;;;-4.20;1.00;;;;;;5039414;28;20723;-55
2022/12/18 07:24:25;;;;;;;16.00;8.60;;;-4.20;1.00;;;;;;5059236;28;20231;-55
2022/12/18 07:26:51;;;;;;;11.87;7.87;;;-4.20;8.40;;;;;;5060140;28;20642;-55
2022/12/18 07:29:18;;;;;;;17.73;9.13;;;-4.20;1.00;;;;;;5057839;28;20220;-56
2022/12/18 07:31:45;;;;;;;17.47;9.33;;;-4.20;1.00;;;;;;5058063;28;20210;-57
2022/12/18 07:34:13;;;;;;;16.33;9.03;;;-4.10;1.00;;;;;;5037644;28;20276;-56
2022/12/18 07:36:40;;;;;;;15.23;7.90;;;-4.30;1.00;;;;;;5058424;28;20633;-54
2022/12/18 07:39:07;;;;;;;19.13;8.87;;;-4.20;99.90;;;;;;5058088;28;20226;-58
2022/12/18 07:41:34;;;;;;;18.13;9.57;;;-4.20;99.90;;;;;;5055840;28;20214;-55
2022/12/18 07:44:00;;;;;;;15.07;8.37;;;-4.20;1.00;;;;;;5039941;28;20200;-55
2022/12/18 07:46:27;;;;;;;18.13;9.97;;;-4.10;1.00;;;;;;5057240;28;20637;-55
2022/12/18 07:48:54;;;;;;;17.30;9.10;;;-4.00;1.00;;;;;;5057514;28;20739;-56
2022/12/18 07:51:21;;;;;;;19.40;9.27;;;-4.00;1.00;;;;;;5060669;28;20204;-56
2022/12/18 07:53:48;;;;;;;16.20;9.40;;;-4.10;1.00;;;;;;5058692;28;20213;-53
2022/12/18 07:56:18;;;;;;;17.10;8.93;;;-4.20;1.00;;;;;;5058808;28;20209;-56
2022/12/18 07:58:56;;;;;;;17.80;9.23;;;-4.10;1.00;;;;;;5057747;28;20231;-54
2022/12/18 08:01:23;;;;;;;16.80;9.70;;;-4.20;90.40;;;;;;4695935;28;9999897;-55
2022/12/18 08:03:50;;;;;;;19.47;9.43;;;-4.20;99.90;;;;;;5053568;28;20289;-55
2022/12/18 08:06:18;;;;;;;18.40;9.60;;;-4.30;99.90;;;;;;5056536;28;20239;-55
2022/12/18 08:08:48;;;;;;;16.50;9.43;;;-4.10;99.90;;;;;;5057378;28;20624;-55
2022/12/18 08:11:15;;;;;;;16.37;8.93;;;-4.20;48.50;;;;;;5056896;28;20274;-55
2022/12/18 08:13:42;;;;;;;19.43;10.03;;;-3.90;99.90;;;;;;5074664;28;20199;-55
2022/12/18 08:16:09;;;;;;;18.20;10.07;;;-3.90;1.00;;;;;;5076696;28;20665;-57
2022/12/18 08:18:37;;;;;;;16.47;9.47;;;-3.90;92.80;;;;;;5076280;28;20530;-57
2022/12/18 08:21:12;;;;;;;13.03;8.60;;;-3.80;1.00;;;;;;5076549;28;20286;-55
2022/12/18 08:23:39;;;;;;;16.13;9.03;;;-3.80;1.00;;;;;;5075799;28;20206;-54
2022/12/18 08:26:10;;;;;;;15.07;9.30;;;-3.70;1.00;;;;;;5078768;28;20229;-54
2022/12/18 08:28:37;;;;;;;19.97;9.53;;;-3.70;1.00;;;;;;5077423;28;20223;-55
2022/12/18 08:31:09;;;;;;;21.70;10.37;;;-3.70;1.00;;;;;;5079983;28;20199;-55
2022/12/18 08:33:38;;;;;;;17.13;9.03;;;-3.60;1.00;;;;;;5080931;28;20280;-55
2022/12/18 08:36:08;;;;;;;18.07;9.00;;;-3.60;1.00;;;;;;5081004;28;20872;-55
2022/12/18 08:38:36;;;;;;;17.13;9.30;;;-3.50;1.00;;;;;;5080366;28;20682;-55
2022/12/18 08:41:07;;;;;;;19.63;9.40;;;-3.60;1.00;;;;;;5081114;28;20206;-55
2022/12/18 08:46:21;;;;;;;12.93;8.97;;;-3.50;1.00;;;;;;5079248;28;20748;-55
2022/12/18 08:48:51;;;;;;;15.57;9.53;;;-3.40;1.00;;;;;;5079510;28;20209;-57
2022/12/18 08:51:19;;;;;;;14.63;8.77;;;-3.20;1.00;;;;;;5063325;28;20210;-56
2022/12/18 08:53:46;;;;;;;18.20;8.77;;;-3.40;1.00;;;;;;5056818;28;20230;-56
2022/12/18 08:56:14;;;;;;;15.97;8.37;;;-3.20;1.00;;;;;;5077779;28;20198;-55
2022/12/18 08:58:42;;;;;;;19.47;9.30;;;-3.20;1.00;;;;;;5077386;28;20209;-56
2022/12/18 09:01:11;;;;;;;16.30;9.00;;;-3.30;1.00;;;;;;5059373;28;20583;-55
2022/12/18 09:03:38;;;;;;;18.07;10.00;;;-3.30;1.00;;;;;;5078267;28;20666;-54
2022/12/18 09:06:06;;;;;;;18.10;8.70;;;-3.30;1.00;;;;;;5075113;28;20289;-56
2022/12/18 09:08:33;;;;;;;21.03;10.47;;;-3.30;1.00;;;;;;5074559;28;20747;-57
2022/12/18 09:11:00;;;;;;;21.03;9.93;;;-3.40;1.00;;;;;;5076901;28;20310;-54
2022/12/18 09:13:27;;;;;;;19.33;9.33;;;-3.20;1.00;;;;;;5077639;28;20199;-55
2022/12/18 09:15:55;;;;;;;17.27;10.13;;;-3.30;1.00;;;;;;5078288;28;20205;-55
2022/12/18 09:18:23;;;;;;;17.30;10.00;;;-3.10;1.00;;;;;;5077482;28;20261;-55
2022/12/18 09:20:52;;;;;;;15.87;9.40;;;-3.10;1.00;;;;;;5079549;28;20195;-55
2022/12/18 09:23:19;;;;;;;16.07;9.27;;;-2.80;1.00;;;;;;5076970;28;20206;-56
2022/12/18 09:25:46;;;;;;;15.10;9.53;;;-2.70;1.00;;;;;;5075093;28;20299;-55
2022/12/18 09:28:15;;;;;;;16.90;10.20;;;-2.70;99.90;;;;;;5072239;28;20203;-55
2022/12/18 09:30:45;;;;;;;15.57;9.50;;;-2.70;99.90;;;;;;5052855;28;20222;-54
2022/12/18 09:33:12;;;;;;;18.20;9.60;;;-2.60;99.90;;;;;;5073111;28;20200;-54
2022/12/18 09:35:41;;;;;;;19.27;10.80;;;-2.50;99.90;;;;;;5075623;28;20566;-55
2022/12/18 09:38:12;;;;;;;15.87;9.00;;;-2.60;99.90;;;;;;5071196;28;20912;-54
2022/12/18 09:40:47;;;;;;;21.37;9.73;;;-2.60;99.90;;;;;;5051784;28;20285;-59
2022/12/18 09:43:48;;;;;;;17.87;9.53;;;-2.60;1.00;;;;;;5075469;28;20198;-56
2022/12/18 09:46:26;;;;;;;16.37;9.47;;;-2.60;1.00;;;;;;5071676;28;20297;-56
2022/12/18 09:48:58;;;;;;;17.13;9.40;;;-2.50;99.90;;;;;;5074956;28;20247;-56
2022/12/18 09:51:39;;;;;;;15.83;9.33;;;-2.50;99.90;;;;;;5075106;28;20202;-54
2022/12/18 09:54:20;;;;;;;18.30;9.80;;;-2.60;99.90;;;;;;5059221;28;20701;-55
2022/12/18 09:56:47;;;;;;;19.03;9.70;;;-2.60;1.00;;;;;;5078017;28;20309;-54
2022/12/18 09:59:42;;;;;;;15.33;9.33;;;-2.50;1.00;;;;;;5055925;28;20271;-55
2022/12/18 10:02:24;;;;;;;16.10;8.37;;;-2.40;1.00;;;;;;5067379;28;20209;-55
2022/12/18 10:05:03;;;;;;;15.77;9.57;;;-2.30;99.90;;;;;;5066231;28;20734;-55
2022/12/18 10:07:42;;;;;;;16.50;9.73;;;-2.30;99.90;;;;;;5072882;28;20878;-55
2022/12/18 10:10:27;;;;;;;18.50;9.60;;;-2.20;99.90;;;;;;5075590;28;20215;-55
2022/12/18 10:13:17;;;;;;;16.67;9.30;;;-2.30;99.90;;;;;;5065501;28;20205;-55
2022/12/18 10:16:25;;;;;;;15.87;9.93;;;-2.30;99.90;;;;;;5079898;28;20214;-55
2022/12/18 10:19:24;;;;;;;14.97;9.57;;;-2.30;99.90;;;;;;5078904;28;20196;-55
2022/12/18 10:22:10;;;;;;;15.23;8.60;;;-2.20;99.90;;;;;;5045712;28;20219;-59
2022/12/18 10:24:53;;;;;;;17.80;9.20;;;-2.00;99.90;;;;;;5079094;28;20300;-54
2022/12/18 10:27:25;;;;;;;16.10;9.37;;;-1.90;99.90;;;;;;5077524;28;20246;-54
2022/12/18 10:29:53;;;;;;;15.40;8.40;;;-2.10;99.90;;;;;;5061070;28;20223;-57
2022/12/18 10:32:27;;;;;;;19.80;9.50;;;-2.00;99.90;;;;;;5076595;28;20199;-55
2022/12/18 10:34:56;;;;;;;18.50;10.63;;;-2.10;99.90;;;;;;5063487;28;20759;-54
2022/12/18 10:37:28;;;;;;;15.60;9.37;;;-2.00;99.90;;;;;;5079681;28;20259;-59
2022/12/18 10:40:09;;;;;;;15.63;9.40;;;-1.90;99.90;;;;;;5060411;28;20637;-60
2022/12/18 10:42:36;;;;;;;18.77;9.60;;;-2.00;99.90;;;;;;5076430;28;20211;-58
2022/12/18 10:45:21;;;;;;;17.77;9.13;;;-2.00;99.90;;;;;;5079660;28;20204;-55
2022/12/18 10:47:49;;;;;;;14.80;9.30;;;-1.70;99.90;;;;;;5077609;28;20203;-54
2022/12/18 10:50:31;;;;;;;16.23;9.27;;;-1.60;99.90;;;;;;5078985;28;21412;-54
2022/12/18 10:53:27;;;;;;;15.80;8.83;;;-1.60;1.00;;;;;;5078803;28;21480;-61
2022/12/18 10:56:00;;;;;;;18.03;10.37;;;-1.60;16.90;;;;;;5080430;28;20248;-55
2022/12/18 10:58:32;;;;;;;18.50;10.07;;;-1.50;99.90;;;;;;5073883;28;20658;-54
2022/12/18 11:01:03;;;;;;;17.83;10.40;;;-1.50;1.00;;;;;;5077745;28;20200;-56
2022/12/18 11:03:35;;;;;;;18.43;10.00;;;-1.50;1.00;;;;;;5077222;28;20211;-56
2022/12/18 11:06:21;;;;;;;18.33;9.77;;;-1.50;1.00;;;;;;5076861;28;20644;-55
2022/12/18 11:09:03;;;;;;;19.67;10.00;;;-1.50;22.60;;;;;;5076630;28;20203;-55
2022/12/18 11:11:38;;;;;;;17.87;9.20;;;-1.60;1.00;;;;;;5076437;28;20237;-58
2022/12/18 11:14:13;;;;;;;18.57;9.53;;;-1.50;99.90;;;;;;5075506;28;20196;-56
2022/12/18 11:16:46;;;;;;;19.37;10.40;;;-1.60;99.90;;;;;;5076616;28;20290;-55
2022/12/18 11:19:36;;;;;;;16.83;9.80;;;-1.40;99.90;;;;;;5076812;28;20803;-60
2022/12/18 11:22:26;;;;;;;19.10;9.40;;;-1.40;1.00;;;;;;5078330;28;20191;-60
2022/12/18 11:25:02;;;;;;;15.23;9.93;;;-1.30;53.30;;;;;;5077069;28;20226;-56
2022/12/18 11:27:55;;;;;;;15.33;9.37;;;-1.10;1.00;;;;;;5073927;28;20559;-57
2022/12/18 11:30:24;;;;;;;18.23;10.27;;;-1.10;1.00;;;;;;5076941;28;20209;-55
2022/12/18 11:32:58;;;;;;;16.20;9.60;;;-1.10;1.00;;;;;;5074024;28;20292;-55
2022/12/18 11:35:49;;;;;;;17.77;9.83;;;-1.10;1.00;;;;;;5077401;28;20254;-55
2022/12/18 11:38:29;;;;;;;16.40;9.93;;;-1.00;1.00;;;;;;5066064;28;20225;-55
2022/12/18 11:41:02;;;;;;;17.83;9.97;;;-1.00;1.00;;;;;;5074687;28;20203;-56
2022/12/18 11:43:45;;;;;;;19.53;9.87;;;-0.90;1.00;;;;;;5076757;28;20205;-56
2022/12/18 11:46:22;;;;;;;19.73;10.97;;;-1.00;1.00;;;;;;5078937;28;20212;-55
2022/12/18 11:48:58;;;;;;;17.37;9.67;;;-1.00;1.00;;;;;;5061227;28;20280;-60
2022/12/18 11:51:46;;;;;;;17.03;9.73;;;-1.10;1.00;;;;;;5078771;28;20221;-56
2022/12/18 11:54:15;;;;;;;17.70;10.00;;;-0.80;1.00;;;;;;5076672;28;20298;-56
2022/12/18 11:56:53;;;;;;;16.60;10.03;;;-0.80;1.00;;;;;;5077614;28;20207;-57
2022/12/18 11:59:55;;;;;;;17.30;9.83;;;-0.80;1.00;;;;;;5077288;28;20190;-56
2022/12/18 12:02:29;;;;;;;17.57;9.40;;;-0.80;1.00;;;;;;5082696;28;20627;-57
2022/12/18 12:05:17;;;;;;;20.40;10.70;;;-0.80;1.00;;;;;;5082767;28;20652;-57
2022/12/18 12:07:57;;;;;;;19.30;11.43;;;-0.80;1.00;;;;;;5083514;28;20643;-55
2022/12/18 12:10:51;;;;;;;16.03;10.60;;;-0.80;1.00;;;;;;5084664;28;20316;-54
2022/12/18 12:13:30;;;;;;;16.70;10.50;;;-0.70;1.00;;;;;;5065369;28;20280;-55
2022/12/18 12:16:34;;;;;;;15.87;10.30;;;-0.60;1.00;;;;;;5082588;28;20199;-56
2022/12/18 12:19:32;;;;;;;21.50;10.57;;;-0.50;1.00;;;;;;5082434;28;20197;-55
2022/12/18 12:22:18;;;;;;;17.70;10.07;;;-0.60;1.00;;;;;;5078901;28;20257;-55
2022/12/18 12:24:52;;;;;;;19.00;10.03;;;-0.60;1.00;;;;;;5085081;28;20567;-57
2022/12/18 12:27:37;;;;;;;18.63;9.73;;;-0.60;1.00;;;;;;5083543;28;20787;-56
2022/12/18 12:30:18;;;;;;;17.97;10.10;;;-0.60;1.00;;;;;;5066061;28;20263;-55
2022/12/18 12:32:59;;;;;;;26.47;10.83;;;-0.60;1.00;;;;;;5081936;28;20200;-55
2022/12/18 12:35:26;;;;;;;17.03;10.13;;;-0.50;1.00;;;;;;5083572;28;20201;-57
2022/12/18 12:38:12;;;;;;;18.37;9.97;;;-0.50;1.00;;;;;;5082235;28;20199;-56
2022/12/18 12:40:48;;;;;;;18.00;9.83;;;-0.50;1.00;;;;;;5083624;28;20634;-57
2022/12/18 12:43:44;;;;;;;17.93;9.93;;;-0.50;1.00;;;;;;5082363;28;20215;-56
2022/12/18 12:46:20;;;;;;;20.20;11.10;;;-0.60;1.00;;;;;;5083840;28;20234;-55
2022/12/18 12:48:55;;;;;;;19.97;10.77;;;-0.50;1.00;;;;;;5084123;28;20650;-56
2022/12/18 12:51:21;;;;;;;17.47;10.87;;;-0.40;1.00;;;;;;5081263;28;20625;-55
2022/12/18 12:53:49;;;;;;;16.60;9.67;;;-0.40;1.00;;;;;;5084368;28;20197;-55
2022/12/18 12:56:21;;;;;;;18.53;10.13;;;-0.40;1.00;;;;;;5084074;28;20224;-55
2022/12/18 12:58:47;;;;;;;14.40;9.00;;;-0.40;1.00;;;;;;5081629;28;20671;-55
2022/12/18 13:01:41;;;;;;;17.30;10.83;;;-0.40;1.00;;;;;;5080964;28;20200;-55
2022/12/18 13:04:23;;;;;;;17.70;9.90;;;-0.30;1.00;;;;;;5070115;28;20624;-55
2022/12/18 13:07:26;;;;;;;15.90;8.63;;;-0.30;1.00;;;;;;5074277;28;20306;-54
2022/12/18 13:10:16;;;;;;;18.47;11.17;;;-0.30;1.00;;;;;;5045991;28;20207;-55